sensor_id;sensor_type;location;lat;lon;timestamp;P1;durP1;ratioP1;P2;durP2;ratioP2
2956;SDS011;1488;51.548;7.222;2022-08-11T00:02:23;1.33;;;1.23;;
2956;SDS011;1488;51.548;7.222;2022-08-11T00:04:52;1.13;;;0.97;;
2956;SDS011;1488;51.548;7.222;2022-08-11T00:07:21;2.33;;;1.40;;
2956;SDS011;1488;51.548;7.222;2022-08-11T00:09:49;1.50;;;1.40;;
2956;SDS011;1488;51.548;7.222;2022-08-11T00:12:17;1.50;;;1.27;;
2956;SDS011;1488;51.548;7.222;2022-08-11T00:14:45;1.97;;;1.33;;
2956;SDS011;1488;51.548;7.222;2022-08-11T00:20:28;1.20;;;1.10;;
2956;SDS011;1488;51.548;7.222;2022-08-11T00:23:00;1.13;;;1.00;;
2956;SDS011;1488;51.548;7.222;2022-08-11T00:25:32;1.30;;;1.20;;
2956;SDS011;1488;51.548;7.222;2022-08-11T00:28:03;1.30;;;1.20;;
2956;SDS011;1488;51.548;7.222;2022-08-11T00:30:49;1.17;;;1.07;;
2956;SDS011;1488;51.548;7.222;2022-08-11T00:33:17;1.40;;;1.30;;
2956;SDS011;1488;51.548;7.222;2022-08-11T00:35:45;1.63;;;1.20;;
2956;SDS011;1488;51.548;7.222;2022-08-11T00:38:14;1.50;;;1.20;;
2956;SDS011;1488;51.548;7.222;2022-08-11T00:40:43;1.37;;;1.20;;
2956;SDS011;1488;51.548;7.222;2022-08-11T00:43:17;1.40;;;1.30;;
2956;SDS011;1488;51.548;7.222;2022-08-11T00:48:44;1.40;;;1.30;;
2956;SDS011;1488;51.548;7.222;2022-08-11T00:51:22;1.40;;;1.30;;
2956;SDS011;1488;51.548;7.222;2022-08-11T00:54:02;1.23;;;1.13;;
2956;SDS011;1488;51.548;7.222;2022-08-11T01:00:03;1.27;;;1.17;;
2956;SDS011;1488;51.548;7.222;2022-08-11T01:02:40;1.10;;;1.00;;
2956;SDS011;1488;51.548;7.222;2022-08-11T01:05:21;1.30;;;1.20;;
2956;SDS011;1488;51.548;7.222;2022-08-11T01:11:16;1.30;;;1.10;;
2956;SDS011;1488;51.548;7.222;2022-08-11T01:14:11;1.10;;;1.00;;
2956;SDS011;1488;51.548;7.222;2022-08-11T01:17:04;1.30;;;1.17;;
2956;SDS011;1488;51.548;7.222;2022-08-11T01:20:08;1.50;;;1.40;;
2956;SDS011;1488;51.548;7.222;2022-08-11T01:22:58;1.33;;;1.23;;
2956;SDS011;1488;51.548;7.222;2022-08-11T01:26:23;1.30;;;1.20;;
2956;SDS011;1488;51.548;7.222;2022-08-11T01:33:03;1.50;;;1.40;;
2956;SDS011;1488;51.548;7.222;2022-08-11T01:42:23;1.27;;;1.17;;
2956;SDS011;1488;51.548;7.222;2022-08-11T01:45:41;1.40;;;1.30;;
2956;SDS011;1488;51.548;7.222;2022-08-11T01:48:18;1.40;;;1.30;;
2956;SDS011;1488;51.548;7.222;2022-08-11T01:51:00;1.30;;;1.20;;
2956;SDS011;1488;51.548;7.222;2022-08-11T01:53:42;1.50;;;1.33;;
2956;SDS011;1488;51.548;7.222;2022-08-11T01:56:25;1.70;;;1.33;;
2956;SDS011;1488;51.548;7.222;2022-08-11T01:58:59;1.23;;;1.13;;
2956;SDS011;1488;51.548;7.222;2022-08-11T02:01:37;1.30;;;1.20;;
2956;SDS011;1488;51.548;7.222;2022-08-11T02:04:18;1.23;;;1.13;;
2956;SDS011;1488;51.548;7.222;2022-08-11T02:06:57;1.40;;;1.30;;
2956;SDS011;1488;51.548;7.222;2022-08-11T02:09:40;1.30;;;1.20;;
2956;SDS011;1488;51.548;7.222;2022-08-11T02:12:18;1.00;;;0.90;;
2956;SDS011;1488;51.548;7.222;2022-08-11T02:14:59;1.73;;;1.17;;
2956;SDS011;1488;51.548;7.222;2022-08-11T02:17:36;1.10;;;1.00;;
2956;SDS011;1488;51.548;7.222;2022-08-11T02:20:13;1.20;;;1.00;;
2956;SDS011;1488;51.548;7.222;2022-08-11T02:23:03;1.40;;;1.30;;
2956;SDS011;1488;51.548;7.222;2022-08-11T02:26:08;1.23;;;1.13;;
2956;SDS011;1488;51.548;7.222;2022-08-11T02:28:42;1.53;;;1.37;;
2956;SDS011;1488;51.548;7.222;2022-08-11T02:31:26;1.40;;;1.23;;
2956;SDS011;1488;51.548;7.222;2022-08-11T02:34:24;1.67;;;1.40;;
2956;SDS011;1488;51.548;7.222;2022-08-11T02:37:02;1.30;;;1.20;;
2956;SDS011;1488;51.548;7.222;2022-08-11T02:39:42;1.23;;;1.00;;
2956;SDS011;1488;51.548;7.222;2022-08-11T02:42:22;1.40;;;1.30;;
2956;SDS011;1488;51.548;7.222;2022-08-11T02:45:11;1.20;;;1.10;;
2956;SDS011;1488;51.548;7.222;2022-08-11T02:47:57;1.47;;;1.37;;
2956;SDS011;1488;51.548;7.222;2022-08-11T02:50:50;1.20;;;1.10;;
2956;SDS011;1488;51.548;7.222;2022-08-11T02:53:24;1.20;;;1.10;;
2956;SDS011;1488;51.548;7.222;2022-08-11T02:55:57;1.20;;;1.10;;
2956;SDS011;1488;51.548;7.222;2022-08-11T02:58:35;1.40;;;1.30;;
2956;SDS011;1488;51.548;7.222;2022-08-11T03:01:17;1.50;;;1.40;;
2956;SDS011;1488;51.548;7.222;2022-08-11T03:03:54;1.20;;;1.10;;
2956;SDS011;1488;51.548;7.222;2022-08-11T03:06:28;1.60;;;1.20;;
2956;SDS011;1488;51.548;7.222;2022-08-11T03:09:02;1.20;;;1.10;;
2956;SDS011;1488;51.548;7.222;2022-08-11T03:11:40;1.23;;;1.10;;
2956;SDS011;1488;51.548;7.222;2022-08-11T03:14:34;1.40;;;1.00;;
2956;SDS011;1488;51.548;7.222;2022-08-11T03:17:27;1.37;;;1.27;;
2956;SDS011;1488;51.548;7.222;2022-08-11T03:20:14;1.07;;;0.97;;
2956;SDS011;1488;51.548;7.222;2022-08-11T03:23:02;1.87;;;1.20;;
2956;SDS011;1488;51.548;7.222;2022-08-11T03:25:35;1.40;;;1.30;;
2956;SDS011;1488;51.548;7.222;2022-08-11T03:28:13;2.13;;;1.30;;
2956;SDS011;1488;51.548;7.222;2022-08-11T03:30:55;1.27;;;1.17;;
2956;SDS011;1488;51.548;7.222;2022-08-11T03:33:30;1.10;;;1.00;;
2956;SDS011;1488;51.548;7.222;2022-08-11T03:39:41;1.70;;;1.40;;
2956;SDS011;1488;51.548;7.222;2022-08-11T03:42:15;1.17;;;1.03;;
2956;SDS011;1488;51.548;7.222;2022-08-11T03:48:01;1.40;;;1.30;;
2956;SDS011;1488;51.548;7.222;2022-08-11T03:50:46;1.50;;;1.40;;
2956;SDS011;1488;51.548;7.222;2022-08-11T03:53:31;1.40;;;1.30;;
2956;SDS011;1488;51.548;7.222;2022-08-11T03:56:22;2.57;;;1.10;;
2956;SDS011;1488;51.548;7.222;2022-08-11T03:59:25;1.20;;;1.10;;
2956;SDS011;1488;51.548;7.222;2022-08-11T04:02:27;1.20;;;1.10;;
2956;SDS011;1488;51.548;7.222;2022-08-11T04:11:36;1.20;;;1.10;;
2956;SDS011;1488;51.548;7.222;2022-08-11T04:14:32;1.40;;;1.30;;
2956;SDS011;1488;51.548;7.222;2022-08-11T04:17:47;1.50;;;1.40;;
2956;SDS011;1488;51.548;7.222;2022-08-11T04:20:59;1.43;;;1.33;;
2956;SDS011;1488;51.548;7.222;2022-08-11T04:23:55;1.40;;;1.27;;
2956;SDS011;1488;51.548;7.222;2022-08-11T04:29:34;1.20;;;1.10;;
2956;SDS011;1488;51.548;7.222;2022-08-11T04:32:18;1.40;;;1.30;;
2956;SDS011;1488;51.548;7.222;2022-08-11T04:35:07;1.20;;;1.10;;
2956;SDS011;1488;51.548;7.222;2022-08-11T04:37:56;1.40;;;1.30;;
2956;SDS011;1488;51.548;7.222;2022-08-11T04:40:53;1.37;;;1.23;;
2956;SDS011;1488;51.548;7.222;2022-08-11T04:47:15;1.30;;;1.20;;
2956;SDS011;1488;51.548;7.222;2022-08-11T04:50:16;1.40;;;1.30;;
2956;SDS011;1488;51.548;7.222;2022-08-11T04:53:14;1.40;;;1.30;;
2956;SDS011;1488;51.548;7.222;2022-08-11T04:56:13;1.30;;;1.20;;
2956;SDS011;1488;51.548;7.222;2022-08-11T04:59:08;1.37;;;1.17;;
2956;SDS011;1488;51.548;7.222;2022-08-11T05:02:35;1.40;;;1.10;;
2956;SDS011;1488;51.548;7.222;2022-08-11T05:05:45;1.10;;;1.00;;
2956;SDS011;1488;51.548;7.222;2022-08-11T05:08:51;1.70;;;1.13;;
2956;SDS011;1488;51.548;7.222;2022-08-11T05:14:50;1.40;;;1.30;;
2956;SDS011;1488;51.548;7.222;2022-08-11T05:17:39;1.10;;;1.00;;
2956;SDS011;1488;51.548;7.222;2022-08-11T05:20:26;1.40;;;1.13;;
2956;SDS011;1488;51.548;7.222;2022-08-11T05:23:11;1.97;;;1.33;;
2956;SDS011;1488;51.548;7.222;2022-08-11T05:25:59;1.50;;;1.40;;
2956;SDS011;1488;51.548;7.222;2022-08-11T05:28:48;1.93;;;1.30;;
2956;SDS011;1488;51.548;7.222;2022-08-11T05:31:36;1.60;;;1.50;;
2956;SDS011;1488;51.548;7.222;2022-08-11T05:34:24;1.20;;;1.10;;
2956;SDS011;1488;51.548;7.222;2022-08-11T05:37:12;1.20;;;1.10;;
2956;SDS011;1488;51.548;7.222;2022-08-11T05:39:45;1.20;;;1.10;;
2956;SDS011;1488;51.548;7.222;2022-08-11T05:42:35;1.60;;;1.50;;
2956;SDS011;1488;51.548;7.222;2022-08-11T05:45:24;2.03;;;1.93;;
2956;SDS011;1488;51.548;7.222;2022-08-11T05:48:09;3.10;;;2.20;;
2956;SDS011;1488;51.548;7.222;2022-08-11T05:50:57;2.63;;;2.43;;
2956;SDS011;1488;51.548;7.222;2022-08-11T05:53:48;2.40;;;2.17;;
2956;SDS011;1488;51.548;7.222;2022-08-11T05:56:40;2.97;;;2.77;;
2956;SDS011;1488;51.548;7.222;2022-08-11T05:59:15;4.33;;;2.40;;
2956;SDS011;1488;51.548;7.222;2022-08-11T06:01:43;3.33;;;2.30;;
2956;SDS011;1488;51.548;7.222;2022-08-11T06:04:14;6.67;;;2.13;;
2956;SDS011;1488;51.548;7.222;2022-08-11T06:06:51;4.23;;;2.07;;
2956;SDS011;1488;51.548;7.222;2022-08-11T06:09:25;4.73;;;2.50;;
2956;SDS011;1488;51.548;7.222;2022-08-11T06:11:55;5.60;;;2.47;;
2956;SDS011;1488;51.548;7.222;2022-08-11T06:14:26;2.90;;;2.47;;
2956;SDS011;1488;51.548;7.222;2022-08-11T06:16:55;2.97;;;2.30;;
2956;SDS011;1488;51.548;7.222;2022-08-11T06:19:30;4.80;;;2.90;;
2956;SDS011;1488;51.548;7.222;2022-08-11T06:22:00;2.80;;;2.43;;
2956;SDS011;1488;51.548;7.222;2022-08-11T06:24:35;9.83;;;2.40;;
2956;SDS011;1488;51.548;7.222;2022-08-11T06:27:03;1.90;;;1.70;;
2956;SDS011;1488;51.548;7.222;2022-08-11T06:29:33;3.73;;;1.93;;
2956;SDS011;1488;51.548;7.222;2022-08-11T06:32:05;5.10;;;2.27;;
2956;SDS011;1488;51.548;7.222;2022-08-11T06:34:39;3.87;;;3.00;;
2956;SDS011;1488;51.548;7.222;2022-08-11T06:37:20;5.63;;;2.67;;
2956;SDS011;1488;51.548;7.222;2022-08-11T06:39:53;2.63;;;2.43;;
2956;SDS011;1488;51.548;7.222;2022-08-11T06:42:49;2.30;;;2.10;;
2956;SDS011;1488;51.548;7.222;2022-08-11T06:45:25;4.63;;;2.30;;
2956;SDS011;1488;51.548;7.222;2022-08-11T06:47:55;2.57;;;1.90;;
2956;SDS011;1488;51.548;7.222;2022-08-11T06:50:25;3.30;;;2.30;;
2956;SDS011;1488;51.548;7.222;2022-08-11T06:53:11;4.80;;;2.17;;
2956;SDS011;1488;51.548;7.222;2022-08-11T06:55:43;3.03;;;2.00;;
2956;SDS011;1488;51.548;7.222;2022-08-11T06:58:30;1.97;;;1.87;;
2956;SDS011;1488;51.548;7.222;2022-08-11T07:01:17;2.43;;;1.83;;
2956;SDS011;1488;51.548;7.222;2022-08-11T07:03:53;3.60;;;2.60;;
2956;SDS011;1488;51.548;7.222;2022-08-11T07:06:32;3.10;;;2.20;;
2956;SDS011;1488;51.548;7.222;2022-08-11T07:09:17;2.10;;;1.57;;
2956;SDS011;1488;51.548;7.222;2022-08-11T07:12:39;3.07;;;2.00;;
2956;SDS011;1488;51.548;7.222;2022-08-11T07:15:27;1.87;;;1.77;;
2956;SDS011;1488;51.548;7.222;2022-08-11T07:18:11;2.27;;;1.70;;
2956;SDS011;1488;51.548;7.222;2022-08-11T07:21:20;2.17;;;1.77;;
2956;SDS011;1488;51.548;7.222;2022-08-11T07:24:12;4.80;;;2.23;;
2956;SDS011;1488;51.548;7.222;2022-08-11T07:27:14;2.10;;;1.73;;
2956;SDS011;1488;51.548;7.222;2022-08-11T07:30:03;2.63;;;1.70;;
2956;SDS011;1488;51.548;7.222;2022-08-11T07:32:35;1.80;;;1.70;;
2956;SDS011;1488;51.548;7.222;2022-08-11T07:35:09;2.87;;;1.90;;
2956;SDS011;1488;51.548;7.222;2022-08-11T07:37:39;4.10;;;1.90;;
2956;SDS011;1488;51.548;7.222;2022-08-11T07:40:08;2.57;;;2.00;;
2956;SDS011;1488;51.548;7.222;2022-08-11T07:42:37;2.23;;;1.70;;
2956;SDS011;1488;51.548;7.222;2022-08-11T07:45:10;4.00;;;2.00;;
2956;SDS011;1488;51.548;7.222;2022-08-11T07:47:56;2.70;;;1.97;;
2956;SDS011;1488;51.548;7.222;2022-08-11T07:50:42;2.30;;;2.10;;
2956;SDS011;1488;51.548;7.222;2022-08-11T07:53:28;2.73;;;1.73;;
2956;SDS011;1488;51.548;7.222;2022-08-11T08:08:37;3.77;;;1.93;;
2956;SDS011;1488;51.548;7.222;2022-08-11T08:11:38;1.93;;;1.83;;
2956;SDS011;1488;51.548;7.222;2022-08-11T08:18:10;2.00;;;1.77;;
2956;SDS011;1488;51.548;7.222;2022-08-11T08:20:38;4.23;;;2.07;;
2956;SDS011;1488;51.548;7.222;2022-08-11T08:23:09;2.17;;;1.97;;
2956;SDS011;1488;51.548;7.222;2022-08-11T08:25:39;3.60;;;1.90;;
2956;SDS011;1488;51.548;7.222;2022-08-11T08:28:09;2.90;;;1.90;;
2956;SDS011;1488;51.548;7.222;2022-08-11T08:30:38;8.30;;;2.30;;
2956;SDS011;1488;51.548;7.222;2022-08-11T08:33:11;3.07;;;1.90;;
2956;SDS011;1488;51.548;7.222;2022-08-11T08:35:40;4.17;;;2.17;;
2956;SDS011;1488;51.548;7.222;2022-08-11T08:38:09;4.90;;;2.83;;
2956;SDS011;1488;51.548;7.222;2022-08-11T08:40:38;5.07;;;2.00;;
2956;SDS011;1488;51.548;7.222;2022-08-11T08:43:08;6.97;;;2.73;;
2956;SDS011;1488;51.548;7.222;2022-08-11T08:45:41;2.07;;;1.87;;
2956;SDS011;1488;51.548;7.222;2022-08-11T08:48:10;2.60;;;2.40;;
2956;SDS011;1488;51.548;7.222;2022-08-11T08:50:42;2.40;;;2.20;;
2956;SDS011;1488;51.548;7.222;2022-08-11T08:53:30;3.47;;;2.07;;
2956;SDS011;1488;51.548;7.222;2022-08-11T08:56:02;3.23;;;2.07;;
2956;SDS011;1488;51.548;7.222;2022-08-11T08:58:32;4.07;;;2.20;;
2956;SDS011;1488;51.548;7.222;2022-08-11T09:01:01;2.67;;;1.70;;
2956;SDS011;1488;51.548;7.222;2022-08-11T09:03:28;3.93;;;2.67;;
2956;SDS011;1488;51.548;7.222;2022-08-11T09:05:57;3.00;;;2.70;;
2956;SDS011;1488;51.548;7.222;2022-08-11T09:08:24;4.17;;;2.30;;
2956;SDS011;1488;51.548;7.222;2022-08-11T09:10:54;3.30;;;2.10;;
2956;SDS011;1488;51.548;7.222;2022-08-11T09:13:55;2.17;;;1.93;;
2956;SDS011;1488;51.548;7.222;2022-08-11T09:16:22;2.23;;;1.67;;
2956;SDS011;1488;51.548;7.222;2022-08-11T09:18:50;3.23;;;2.27;;
2956;SDS011;1488;51.548;7.222;2022-08-11T09:21:18;2.83;;;2.07;;
2956;SDS011;1488;51.548;7.222;2022-08-11T09:23:47;2.27;;;2.07;;
2956;SDS011;1488;51.548;7.222;2022-08-11T09:26:33;4.50;;;2.03;;
2956;SDS011;1488;51.548;7.222;2022-08-11T09:29:21;2.43;;;2.17;;
2956;SDS011;1488;51.548;7.222;2022-08-11T09:31:48;1.87;;;1.77;;
2956;SDS011;1488;51.548;7.222;2022-08-11T09:34:17;2.50;;;2.10;;
2956;SDS011;1488;51.548;7.222;2022-08-11T09:36:45;4.50;;;1.80;;
2956;SDS011;1488;51.548;7.222;2022-08-11T09:39:29;4.13;;;1.53;;
2956;SDS011;1488;51.548;7.222;2022-08-11T09:42:19;3.10;;;2.23;;
2956;SDS011;1488;51.548;7.222;2022-08-11T09:44:48;2.43;;;2.00;;
2956;SDS011;1488;51.548;7.222;2022-08-11T09:47:17;2.20;;;2.00;;
2956;SDS011;1488;51.548;7.222;2022-08-11T09:49:48;2.73;;;2.50;;
2956;SDS011;1488;51.548;7.222;2022-08-11T09:52:17;2.40;;;2.00;;
2956;SDS011;1488;51.548;7.222;2022-08-11T09:54:45;2.00;;;1.90;;
2956;SDS011;1488;51.548;7.222;2022-08-11T09:57:16;2.63;;;2.30;;
2956;SDS011;1488;51.548;7.222;2022-08-11T10:00:03;2.10;;;1.90;;
2956;SDS011;1488;51.548;7.222;2022-08-11T10:02:32;2.47;;;1.93;;
2956;SDS011;1488;51.548;7.222;2022-08-11T10:05:05;4.40;;;2.07;;
2956;SDS011;1488;51.548;7.222;2022-08-11T10:07:51;2.53;;;2.33;;
2956;SDS011;1488;51.548;7.222;2022-08-11T10:10:19;3.30;;;2.50;;
2956;SDS011;1488;51.548;7.222;2022-08-11T10:12:48;3.17;;;1.87;;
2956;SDS011;1488;51.548;7.222;2022-08-11T10:15:18;2.90;;;1.90;;
2956;SDS011;1488;51.548;7.222;2022-08-11T10:18:03;2.73;;;2.50;;
2956;SDS011;1488;51.548;7.222;2022-08-11T10:20:49;2.60;;;2.10;;
2956;SDS011;1488;51.548;7.222;2022-08-11T10:23:19;2.90;;;2.00;;
2956;SDS011;1488;51.548;7.222;2022-08-11T10:26:04;2.80;;;2.10;;
2956;SDS011;1488;51.548;7.222;2022-08-11T10:28:50;2.93;;;2.17;;
2956;SDS011;1488;51.548;7.222;2022-08-11T10:31:20;2.53;;;2.03;;
2956;SDS011;1488;51.548;7.222;2022-08-11T10:34:06;2.50;;;1.80;;
2956;SDS011;1488;51.548;7.222;2022-08-11T10:36:35;2.97;;;1.80;;
2956;SDS011;1488;51.548;7.222;2022-08-11T10:39:09;3.40;;;1.83;;
2956;SDS011;1488;51.548;7.222;2022-08-11T10:41:39;4.27;;;2.10;;
2956;SDS011;1488;51.548;7.222;2022-08-11T10:44:24;3.10;;;1.70;;
2956;SDS011;1488;51.548;7.222;2022-08-11T10:46:53;2.10;;;1.90;;
2956;SDS011;1488;51.548;7.222;2022-08-11T10:49:37;2.30;;;2.03;;
2956;SDS011;1488;51.548;7.222;2022-08-11T10:52:05;2.03;;;1.77;;
2956;SDS011;1488;51.548;7.222;2022-08-11T10:54:50;2.70;;;2.10;;
2956;SDS011;1488;51.548;7.222;2022-08-11T10:57:35;2.00;;;1.80;;
2956;SDS011;1488;51.548;7.222;2022-08-11T11:00:20;2.47;;;2.37;;
2956;SDS011;1488;51.548;7.222;2022-08-11T11:02:49;2.20;;;2.03;;
2956;SDS011;1488;51.548;7.222;2022-08-11T11:05:20;2.53;;;1.70;;
2956;SDS011;1488;51.548;7.222;2022-08-11T11:07:51;2.17;;;1.93;;
2956;SDS011;1488;51.548;7.222;2022-08-11T11:10:24;2.07;;;1.87;;
2956;SDS011;1488;51.548;7.222;2022-08-11T11:12:52;2.10;;;1.70;;
2956;SDS011;1488;51.548;7.222;2022-08-11T11:15:39;1.63;;;1.53;;
2956;SDS011;1488;51.548;7.222;2022-08-11T11:18:29;1.93;;;1.80;;
2956;SDS011;1488;51.548;7.222;2022-08-11T11:21:01;1.80;;;1.70;;
2956;SDS011;1488;51.548;7.222;2022-08-11T11:23:31;1.83;;;1.73;;
2956;SDS011;1488;51.548;7.222;2022-08-11T11:26:07;2.83;;;1.77;;
2956;SDS011;1488;51.548;7.222;2022-08-11T11:29:10;2.80;;;2.20;;
2956;SDS011;1488;51.548;7.222;2022-08-11T11:32:08;1.97;;;1.87;;
2956;SDS011;1488;51.548;7.222;2022-08-11T11:37:44;1.70;;;1.60;;
2956;SDS011;1488;51.548;7.222;2022-08-11T11:40:15;3.47;;;1.73;;
2956;SDS011;1488;51.548;7.222;2022-08-11T11:42:45;1.70;;;1.60;;
2956;SDS011;1488;51.548;7.222;2022-08-11T11:45:14;2.10;;;1.90;;
2956;SDS011;1488;51.548;7.222;2022-08-11T11:47:43;2.70;;;2.50;;
2956;SDS011;1488;51.548;7.222;2022-08-11T11:50:10;2.07;;;1.97;;
2956;SDS011;1488;51.548;7.222;2022-08-11T11:52:40;4.30;;;1.70;;
2956;SDS011;1488;51.548;7.222;2022-08-11T11:55:08;3.77;;;2.23;;
2956;SDS011;1488;51.548;7.222;2022-08-11T11:57:35;1.67;;;1.57;;
2956;SDS011;1488;51.548;7.222;2022-08-11T12:00:20;2.50;;;1.87;;
2956;SDS011;1488;51.548;7.222;2022-08-11T12:03:13;2.30;;;2.20;;
2956;SDS011;1488;51.548;7.222;2022-08-11T12:05:42;2.10;;;1.90;;
2956;SDS011;1488;51.548;7.222;2022-08-11T12:08:11;1.53;;;1.43;;
2956;SDS011;1488;51.548;7.222;2022-08-11T12:10:42;1.70;;;1.60;;
2956;SDS011;1488;51.548;7.222;2022-08-11T12:13:10;2.67;;;1.43;;
2956;SDS011;1488;51.548;7.222;2022-08-11T12:15:56;1.93;;;1.73;;
2956;SDS011;1488;51.548;7.222;2022-08-11T12:18:28;2.70;;;2.00;;
2956;SDS011;1488;51.548;7.222;2022-08-11T12:20:59;1.50;;;1.40;;
2956;SDS011;1488;51.548;7.222;2022-08-11T12:23:28;1.90;;;1.80;;
2956;SDS011;1488;51.548;7.222;2022-08-11T12:26:15;2.03;;;1.93;;
2956;SDS011;1488;51.548;7.222;2022-08-11T12:29:01;1.60;;;1.50;;
2956;SDS011;1488;51.548;7.222;2022-08-11T12:31:29;1.70;;;1.50;;
2956;SDS011;1488;51.548;7.222;2022-08-11T12:34:00;2.37;;;1.87;;
2956;SDS011;1488;51.548;7.222;2022-08-11T12:36:29;1.80;;;1.70;;
2956;SDS011;1488;51.548;7.222;2022-08-11T12:39:03;1.57;;;1.47;;
2956;SDS011;1488;51.548;7.222;2022-08-11T12:41:33;2.03;;;1.93;;
2956;SDS011;1488;51.548;7.222;2022-08-11T12:44:18;2.40;;;1.90;;
2956;SDS011;1488;51.548;7.222;2022-08-11T12:47:07;1.80;;;1.70;;
2956;SDS011;1488;51.548;7.222;2022-08-11T12:49:36;1.77;;;1.67;;
2956;SDS011;1488;51.548;7.222;2022-08-11T12:52:26;1.70;;;1.60;;
2956;SDS011;1488;51.548;7.222;2022-08-11T12:55:01;1.67;;;1.43;;
2956;SDS011;1488;51.548;7.222;2022-08-11T12:57:31;2.57;;;1.80;;
2956;SDS011;1488;51.548;7.222;2022-08-11T13:00:18;1.77;;;1.67;;
2956;SDS011;1488;51.548;7.222;2022-08-11T13:03:04;1.80;;;1.70;;
2956;SDS011;1488;51.548;7.222;2022-08-11T13:05:51;2.07;;;1.90;;
2956;SDS011;1488;51.548;7.222;2022-08-11T13:08:21;1.80;;;1.70;;
2956;SDS011;1488;51.548;7.222;2022-08-11T13:10:50;1.63;;;1.53;;
2956;SDS011;1488;51.548;7.222;2022-08-11T13:13:35;1.60;;;1.50;;
2956;SDS011;1488;51.548;7.222;2022-08-11T13:16:04;1.50;;;1.40;;
2956;SDS011;1488;51.548;7.222;2022-08-11T13:18:32;1.67;;;1.57;;
2956;SDS011;1488;51.548;7.222;2022-08-11T13:21:00;1.67;;;1.50;;
2956;SDS011;1488;51.548;7.222;2022-08-11T13:23:27;1.90;;;1.80;;
2956;SDS011;1488;51.548;7.222;2022-08-11T13:25:56;1.77;;;1.67;;
2956;SDS011;1488;51.548;7.222;2022-08-11T13:28:23;1.70;;;1.60;;
2956;SDS011;1488;51.548;7.222;2022-08-11T13:30:50;1.53;;;1.43;;
2956;SDS011;1488;51.548;7.222;2022-08-11T13:33:37;1.50;;;1.40;;
2956;SDS011;1488;51.548;7.222;2022-08-11T13:36:06;2.00;;;1.90;;
2956;SDS011;1488;51.548;7.222;2022-08-11T13:38:34;2.17;;;1.83;;
2956;SDS011;1488;51.548;7.222;2022-08-11T13:41:03;1.73;;;1.63;;
2956;SDS011;1488;51.548;7.222;2022-08-11T13:43:51;2.57;;;2.37;;
2956;SDS011;1488;51.548;7.222;2022-08-11T13:46:19;2.80;;;2.00;;
2956;SDS011;1488;51.548;7.222;2022-08-11T13:48:48;2.27;;;1.67;;
2956;SDS011;1488;51.548;7.222;2022-08-11T13:51:16;1.97;;;1.87;;
2956;SDS011;1488;51.548;7.222;2022-08-11T13:53:57;1.90;;;1.80;;
2956;SDS011;1488;51.548;7.222;2022-08-11T13:56:28;2.43;;;1.53;;
2956;SDS011;1488;51.548;7.222;2022-08-11T13:58:56;1.80;;;1.70;;
2956;SDS011;1488;51.548;7.222;2022-08-11T14:01:25;1.70;;;1.60;;
2956;SDS011;1488;51.548;7.222;2022-08-11T14:03:58;1.60;;;1.50;;
2956;SDS011;1488;51.548;7.222;2022-08-11T14:06:29;1.80;;;1.70;;
2956;SDS011;1488;51.548;7.222;2022-08-11T14:08:57;1.50;;;1.40;;
2956;SDS011;1488;51.548;7.222;2022-08-11T14:11:24;1.77;;;1.67;;
2956;SDS011;1488;51.548;7.222;2022-08-11T14:14:12;1.63;;;1.53;;
2956;SDS011;1488;51.548;7.222;2022-08-11T14:16:45;1.40;;;1.30;;
2956;SDS011;1488;51.548;7.222;2022-08-11T14:19:13;1.50;;;1.40;;
2956;SDS011;1488;51.548;7.222;2022-08-11T14:21:42;1.70;;;1.60;;
2956;SDS011;1488;51.548;7.222;2022-08-11T14:24:27;1.70;;;1.60;;
2956;SDS011;1488;51.548;7.222;2022-08-11T14:26:55;1.50;;;1.40;;
2956;SDS011;1488;51.548;7.222;2022-08-11T14:29:24;1.40;;;1.30;;
2956;SDS011;1488;51.548;7.222;2022-08-11T14:31:54;1.67;;;1.57;;
2956;SDS011;1488;51.548;7.222;2022-08-11T14:34:22;1.90;;;1.63;;
2956;SDS011;1488;51.548;7.222;2022-08-11T14:36:54;1.50;;;1.40;;
2956;SDS011;1488;51.548;7.222;2022-08-11T14:39:23;2.60;;;1.73;;
2956;SDS011;1488;51.548;7.222;2022-08-11T14:41:52;3.40;;;1.50;;
2956;SDS011;1488;51.548;7.222;2022-08-11T14:44:44;1.80;;;1.70;;
2956;SDS011;1488;51.548;7.222;2022-08-11T14:47:30;1.73;;;1.63;;
2956;SDS011;1488;51.548;7.222;2022-08-11T14:49:59;1.67;;;1.43;;
2956;SDS011;1488;51.548;7.222;2022-08-11T14:52:27;1.73;;;1.63;;
2956;SDS011;1488;51.548;7.222;2022-08-11T14:54:59;1.50;;;1.40;;
2956;SDS011;1488;51.548;7.222;2022-08-11T14:57:44;1.57;;;1.47;;
2956;SDS011;1488;51.548;7.222;2022-08-11T15:00:14;1.73;;;1.63;;
2956;SDS011;1488;51.548;7.222;2022-08-11T15:02:42;1.40;;;1.30;;
2956;SDS011;1488;51.548;7.222;2022-08-11T15:05:29;1.63;;;1.53;;
2956;SDS011;1488;51.548;7.222;2022-08-11T15:07:56;1.47;;;1.37;;
2956;SDS011;1488;51.548;7.222;2022-08-11T15:10:24;1.40;;;1.30;;
2956;SDS011;1488;51.548;7.222;2022-08-11T15:12:51;1.53;;;1.43;;
2956;SDS011;1488;51.548;7.222;2022-08-11T15:15:20;1.50;;;1.40;;
2956;SDS011;1488;51.548;7.222;2022-08-11T15:18:06;1.80;;;1.70;;
2956;SDS011;1488;51.548;7.222;2022-08-11T15:20:37;1.60;;;1.50;;
2956;SDS011;1488;51.548;7.222;2022-08-11T15:23:22;1.70;;;1.60;;
2956;SDS011;1488;51.548;7.222;2022-08-11T15:26:08;1.63;;;1.53;;
2956;SDS011;1488;51.548;7.222;2022-08-11T15:28:38;1.97;;;1.80;;
2956;SDS011;1488;51.548;7.222;2022-08-11T15:31:26;1.33;;;1.23;;
2956;SDS011;1488;51.548;7.222;2022-08-11T15:34:13;1.67;;;1.57;;
2956;SDS011;1488;51.548;7.222;2022-08-11T15:37:02;1.57;;;1.47;;
2956;SDS011;1488;51.548;7.222;2022-08-11T15:39:50;1.40;;;1.30;;
2956;SDS011;1488;51.548;7.222;2022-08-11T15:42:56;1.70;;;1.60;;
2956;SDS011;1488;51.548;7.222;2022-08-11T15:45:44;1.50;;;1.37;;
2956;SDS011;1488;51.548;7.222;2022-08-11T15:48:17;1.73;;;1.63;;
2956;SDS011;1488;51.548;7.222;2022-08-11T15:50:49;1.57;;;1.47;;
2956;SDS011;1488;51.548;7.222;2022-08-11T15:53:22;1.57;;;1.47;;
2956;SDS011;1488;51.548;7.222;2022-08-11T15:55:53;1.80;;;1.70;;
2956;SDS011;1488;51.548;7.222;2022-08-11T15:58:20;1.70;;;1.60;;
2956;SDS011;1488;51.548;7.222;2022-08-11T16:01:07;1.70;;;1.50;;
2956;SDS011;1488;51.548;7.222;2022-08-11T16:03:56;1.43;;;1.33;;
2956;SDS011;1488;51.548;7.222;2022-08-11T16:06:38;1.93;;;1.70;;
2956;SDS011;1488;51.548;7.222;2022-08-11T16:09:09;2.23;;;1.67;;
2956;SDS011;1488;51.548;7.222;2022-08-11T16:11:38;1.70;;;1.60;;
2956;SDS011;1488;51.548;7.222;2022-08-11T16:14:06;1.70;;;1.60;;
2956;SDS011;1488;51.548;7.222;2022-08-11T16:16:53;1.40;;;1.30;;
2956;SDS011;1488;51.548;7.222;2022-08-11T16:19:24;2.00;;;1.90;;
2956;SDS011;1488;51.548;7.222;2022-08-11T16:21:59;1.80;;;1.40;;
2956;SDS011;1488;51.548;7.222;2022-08-11T16:24:29;1.70;;;1.60;;
2956;SDS011;1488;51.548;7.222;2022-08-11T16:26:57;1.60;;;1.50;;
2956;SDS011;1488;51.548;7.222;2022-08-11T16:29:26;1.60;;;1.40;;
2956;SDS011;1488;51.548;7.222;2022-08-11T16:31:56;1.97;;;1.60;;
2956;SDS011;1488;51.548;7.222;2022-08-11T16:34:45;1.80;;;1.70;;
2956;SDS011;1488;51.548;7.222;2022-08-11T16:37:33;1.70;;;1.33;;
2956;SDS011;1488;51.548;7.222;2022-08-11T16:40:19;2.03;;;1.93;;
2956;SDS011;1488;51.548;7.222;2022-08-11T16:42:48;1.40;;;1.30;;
2956;SDS011;1488;51.548;7.222;2022-08-11T16:45:34;1.83;;;1.73;;
2956;SDS011;1488;51.548;7.222;2022-08-11T16:48:20;1.53;;;1.43;;
2956;SDS011;1488;51.548;7.222;2022-08-11T16:50:50;1.40;;;1.30;;
2956;SDS011;1488;51.548;7.222;2022-08-11T16:53:17;1.50;;;1.40;;
2956;SDS011;1488;51.548;7.222;2022-08-11T16:55:44;1.80;;;1.70;;
2956;SDS011;1488;51.548;7.222;2022-08-11T16:58:14;1.93;;;1.83;;
2956;SDS011;1488;51.548;7.222;2022-08-11T17:00:58;1.83;;;1.60;;
2956;SDS011;1488;51.548;7.222;2022-08-11T17:03:28;1.50;;;1.40;;
2956;SDS011;1488;51.548;7.222;2022-08-11T17:06:17;1.40;;;1.30;;
2956;SDS011;1488;51.548;7.222;2022-08-11T17:09:04;1.77;;;1.67;;
2956;SDS011;1488;51.548;7.222;2022-08-11T17:11:50;1.87;;;1.77;;
2956;SDS011;1488;51.548;7.222;2022-08-11T17:14:39;1.63;;;1.53;;
2956;SDS011;1488;51.548;7.222;2022-08-11T17:17:10;1.70;;;1.60;;
2956;SDS011;1488;51.548;7.222;2022-08-11T17:19:41;1.40;;;1.30;;
2956;SDS011;1488;51.548;7.222;2022-08-11T17:22:14;1.60;;;1.50;;
2956;SDS011;1488;51.548;7.222;2022-08-11T17:25:00;2.43;;;1.77;;
2956;SDS011;1488;51.548;7.222;2022-08-11T17:27:29;1.93;;;1.83;;
2956;SDS011;1488;51.548;7.222;2022-08-11T17:29:58;4.20;;;1.60;;
2956;SDS011;1488;51.548;7.222;2022-08-11T17:32:29;2.83;;;2.53;;